createdAt,value
2018-03-06T00:00:02.557Z,34
2018-03-06T00:01:02.563Z,33.9
2018-03-06T00:02:02.556Z,34
2018-03-06T00:03:03.522Z,33.95
2018-03-06T00:04:02.550Z,33.98
2018-03-06T00:05:02.541Z,33.88
2018-03-06T00:06:02.551Z,33.84
2018-03-06T00:07:03.423Z,33.96
2018-03-06T00:08:02.552Z,34.01
2018-03-06T00:09:02.564Z,33.88
2018-03-06T00:10:02.553Z,33.93
2018-03-06T00:11:03.463Z,33.91
2018-03-06T00:12:02.546Z,34.04
2018-03-06T00:13:02.537Z,34.04
2018-03-06T00:14:02.572Z,33.79
2018-03-06T00:15:03.440Z,33.95
2018-03-06T00:16:02.531Z,33.89
2018-03-06T00:17:02.555Z,34.11
2018-03-06T00:18:02.544Z,33.97
2018-03-06T00:19:03.564Z,33.99
2018-03-06T00:20:02.567Z,33.86
2018-03-06T00:21:02.548Z,33.97
2018-03-06T00:22:03.408Z,34.06
2018-03-06T00:23:02.661Z,33.87
2018-03-06T00:24:02.571Z,33.93
2018-03-06T00:25:02.554Z,33.91
2018-03-06T00:26:02.548Z,33.87
2018-03-06T00:27:02.546Z,33.92
2018-03-06T00:28:02.582Z,33.93
2018-03-06T00:29:03.471Z,33.91
2018-03-06T00:30:02.557Z,33.91
2018-03-06T00:31:02.545Z,33.9
2018-03-06T00:32:02.550Z,33.96
2018-03-06T00:33:03.084Z,33.99
2018-03-06T00:34:02.558Z,33.98
2018-03-06T00:35:02.554Z,33.89
2018-03-06T00:36:02.542Z,34.1
2018-03-06T00:37:03.424Z,33.95
2018-03-06T00:38:02.526Z,33.92
2018-03-06T00:39:02.585Z,34
2018-03-06T00:40:02.535Z,33.97
2018-03-06T00:41:02.558Z,34.04
2018-03-06T00:42:02.557Z,33.93
2018-03-06T00:43:02.538Z,33.91
2018-03-06T00:44:03.205Z,33.81
2018-03-06T00:45:02.516Z,33.87
2018-03-06T00:46:02.536Z,33.89
2018-03-06T00:47:03.425Z,33.95
2018-03-06T00:48:02.542Z,33.97
2018-03-06T00:49:02.531Z,33.94
2018-03-06T00:50:03.371Z,34.04
2018-03-06T00:51:02.537Z,34.1
2018-03-06T00:52:02.535Z,33.92
2018-03-06T00:53:02.509Z,33.93
2018-03-06T00:54:03.578Z,33.95
2018-03-06T00:55:02.539Z,34.02
2018-03-06T00:56:02.529Z,34.02
2018-03-06T00:57:03.253Z,33.92
2018-03-06T00:58:02.602Z,34.12
2018-03-06T00:59:02.531Z,33.82
2018-03-06T01:00:02.514Z,34.05
2018-03-06T01:01:02.532Z,33.98
2018-03-06T01:02:02.536Z,33.9
2018-03-06T01:03:02.542Z,33.95
2018-03-06T01:04:03.473Z,33.97
2018-03-06T01:05:02.624Z,33.95
2018-03-06T01:06:02.593Z,34.01
2018-03-06T01:07:02.542Z,34.07
2018-03-06T01:08:03.288Z,34.01
2018-03-06T01:09:02.538Z,34.01
2018-03-06T01:10:02.545Z,33.95
2018-03-06T01:11:03.493Z,33.98
2018-03-06T01:12:02.597Z,33.94
2018-03-06T01:13:02.535Z,34
2018-03-06T01:14:02.523Z,34
2018-03-06T01:15:03.194Z,33.88
2018-03-06T01:16:02.558Z,34.09
2018-03-06T01:17:02.541Z,33.79
2018-03-06T01:18:02.544Z,33.95
2018-03-06T01:19:03.415Z,34.08
2018-03-06T01:20:02.540Z,33.98
2018-03-06T01:21:02.520Z,33.91
2018-03-06T01:22:02.540Z,33.94
2018-03-06T01:23:02.539Z,33.97
2018-03-06T01:24:02.549Z,33.98
2018-03-06T01:25:02.585Z,33.9
2018-03-06T01:26:03.412Z,33.98
2018-03-06T01:27:02.652Z,33.92
2018-03-06T01:28:02.532Z,33.96
2018-03-06T01:29:03.382Z,34.01
2018-03-06T01:30:02.515Z,33.97
2018-03-06T01:31:02.516Z,33.9
2018-03-06T01:32:03.225Z,33.96
2018-03-06T01:33:02.539Z,33.92
2018-03-06T01:34:02.524Z,33.94
2018-03-06T01:35:02.538Z,33.93
2018-03-06T01:36:03.395Z,33.93
2018-03-06T01:37:02.542Z,33.89
2018-03-06T01:38:02.574Z,33.96
2018-03-06T01:39:03.432Z,34
2018-03-06T01:40:02.578Z,33.9
2018-03-06T01:41:02.507Z,34.04
2018-03-06T01:42:03.516Z,33.97
2018-03-06T01:43:02.579Z,33.94
2018-03-06T01:44:02.539Z,34
2018-03-06T01:45:02.531Z,33.99
2018-03-06T01:46:03.541Z,33.98
2018-03-06T01:47:02.558Z,33.97
2018-03-06T01:48:02.667Z,33.96
2018-03-06T01:49:03.528Z,33.97
2018-03-06T01:50:02.534Z,33.82
2018-03-06T01:51:02.522Z,33.95
2018-03-06T01:52:03.407Z,34.01
2018-03-06T01:53:02.632Z,33.93
2018-03-06T01:54:02.474Z,33.93
2018-03-06T01:55:02.543Z,33.93
2018-03-06T01:56:02.542Z,33.9
2018-03-06T01:57:02.522Z,33.89
2018-03-06T01:58:02.522Z,33.88
2018-03-06T01:59:03.349Z,34.02
2018-03-06T02:00:02.670Z,33.89
2018-03-06T02:01:02.516Z,33.87
2018-03-06T02:02:02.537Z,33.93
2018-03-06T02:03:02.497Z,33.93
2018-03-06T02:04:02.511Z,33.87
2018-03-06T02:05:02.515Z,34
2018-03-06T02:06:03.432Z,34
2018-03-06T02:07:02.512Z,33.92
2018-03-06T02:08:02.500Z,33.97
2018-03-06T02:09:02.510Z,34.06
2018-03-06T02:10:02.528Z,33.94
2018-03-06T02:11:02.761Z,34.01
2018-03-06T02:12:02.502Z,33.92
2018-03-06T02:13:03.462Z,33.91
2018-03-06T02:14:02.525Z,33.87
2018-03-06T02:15:02.504Z,33.87
2018-03-06T02:16:02.557Z,33.96
2018-03-06T02:17:03.042Z,34.02
2018-03-06T02:18:02.507Z,33.97
2018-03-06T02:19:02.501Z,33.95
2018-03-06T02:20:02.558Z,33.93
2018-03-06T02:21:03.204Z,33.93
2018-03-06T02:22:02.805Z,33.94
2018-03-06T02:23:02.499Z,33.96
2018-03-06T02:24:03.506Z,34.02
2018-03-06T02:25:02.498Z,33.85
2018-03-06T02:26:02.509Z,33.97
2018-03-06T02:27:02.508Z,33.98
2018-03-06T02:28:03.053Z,33.96
2018-03-06T02:29:02.527Z,34.03
2018-03-06T02:30:02.515Z,33.94
2018-03-06T02:31:03.005Z,33.99
2018-03-06T02:32:02.511Z,33.93
2018-03-06T02:33:02.497Z,33.98
2018-03-06T02:34:02.500Z,33.77
2018-03-06T02:35:02.831Z,33.96
2018-03-06T02:36:02.502Z,33.91
2018-03-06T02:37:02.507Z,33.96
2018-03-06T02:38:02.497Z,33.94
2018-03-06T02:39:03.359Z,34.02
2018-03-06T02:40:02.534Z,33.98
2018-03-06T02:41:02.521Z,33.94
2018-03-06T02:42:03.328Z,33.96
2018-03-06T02:43:02.504Z,33.96
2018-03-06T02:44:02.533Z,33.94
2018-03-06T02:45:02.495Z,34.04
2018-03-06T02:46:03.145Z,34.03
2018-03-06T02:47:02.526Z,34.17
2018-03-06T02:48:02.491Z,33.99
2018-03-06T02:49:02.498Z,33.9
2018-03-06T02:50:03.352Z,34.03
2018-03-06T02:51:02.498Z,33.98
2018-03-06T02:52:02.494Z,33.93
2018-03-06T02:53:03.363Z,34.02
2018-03-06T02:54:02.506Z,33.92
2018-03-06T02:55:02.518Z,33.97
2018-03-06T02:56:02.472Z,33.98
2018-03-06T02:57:03.127Z,33.92
2018-03-06T02:58:02.486Z,33.97
2018-03-06T02:59:02.476Z,33.97
2018-03-06T03:00:03.711Z,33.96
2018-03-06T03:01:02.491Z,33.96
2018-03-06T03:02:02.502Z,33.99
2018-03-06T03:03:02.495Z,33.96
2018-03-06T03:04:03.515Z,33.95
2018-03-06T03:05:02.498Z,33.96
2018-03-06T03:06:02.518Z,33.98
2018-03-06T03:07:02.519Z,33.95
2018-03-06T03:08:03.246Z,33.87
2018-03-06T03:09:02.476Z,34.07
2018-03-06T03:10:02.495Z,34.01
2018-03-06T03:11:03.518Z,33.93
2018-03-06T03:12:02.482Z,33.99
2018-03-06T03:13:02.496Z,34.04
2018-03-06T03:14:02.480Z,34.03
2018-03-06T03:15:03.398Z,33.99
2018-03-06T03:16:02.514Z,34.04
2018-03-06T03:17:02.482Z,33.98
2018-03-06T03:18:02.477Z,33.96
2018-03-06T03:19:03.285Z,34.03
2018-03-06T03:20:02.476Z,34.01
2018-03-06T03:21:02.492Z,34.01
2018-03-06T03:22:02.505Z,34.06
2018-03-06T03:23:03.154Z,34.01
2018-03-06T03:24:02.490Z,33.97
2018-03-06T03:25:02.499Z,33.97
2018-03-06T03:26:03.326Z,34.01
2018-03-06T03:27:02.760Z,33.87
2018-03-06T03:28:02.503Z,34
2018-03-06T03:29:03.084Z,33.98
2018-03-06T03:30:02.487Z,33.96
2018-03-06T03:31:02.510Z,34.03
2018-03-06T03:32:03.540Z,34.07
2018-03-06T03:33:02.509Z,33.93
2018-03-06T03:34:02.475Z,34
2018-03-06T03:35:03.324Z,34.09
2018-03-06T03:36:02.481Z,34.03
2018-03-06T03:37:02.477Z,34
2018-03-06T03:38:02.477Z,34.01
2018-03-06T03:39:02.504Z,33.98
2018-03-06T03:40:02.525Z,34.01
2018-03-06T03:41:02.542Z,34.05
2018-03-06T03:42:03.358Z,33.96
2018-03-06T03:43:02.524Z,34.05
2018-03-06T03:44:02.483Z,33.99
2018-03-06T03:45:03.450Z,34.05
2018-03-06T03:46:02.485Z,34.06
2018-03-06T03:47:02.487Z,34
2018-03-06T03:48:03.147Z,33.96
2018-03-06T03:49:02.472Z,34
2018-03-06T03:50:02.469Z,34.01
2018-03-06T03:51:03.368Z,34.04
2018-03-06T03:52:02.492Z,33.99
2018-03-06T03:53:02.529Z,34.03
2018-03-06T03:54:03.348Z,33.94
2018-03-06T03:55:02.489Z,33.94
2018-03-06T03:56:02.525Z,33.99
2018-03-06T03:57:02.491Z,33.91
2018-03-06T03:58:03.388Z,33.94
2018-03-06T03:59:02.472Z,33.98
2018-03-06T04:00:02.498Z,34.06
2018-03-06T04:01:03.117Z,34.01
2018-03-06T04:02:02.485Z,34.04
2018-03-06T04:03:02.492Z,34
2018-03-06T04:04:02.480Z,34.01
2018-03-06T04:05:02.489Z,33.95
2018-03-06T04:06:02.475Z,33.98
2018-03-06T04:07:03.226Z,34
2018-03-06T04:08:02.489Z,34
2018-03-06T04:09:02.478Z,33.9
2018-03-06T04:10:03.063Z,33.94
2018-03-06T04:11:02.476Z,34.04
2018-03-06T04:12:02.523Z,34.02
2018-03-06T04:13:02.478Z,33.97
2018-03-06T04:14:02.478Z,34
2018-03-06T04:15:02.453Z,33.91
2018-03-06T04:16:02.496Z,33.93
2018-03-06T04:17:03.240Z,34
2018-03-06T04:18:02.458Z,34.04
2018-03-06T04:19:02.479Z,34.04
2018-03-06T04:20:03.328Z,34.06
2018-03-06T04:21:02.462Z,33.95
2018-03-06T04:22:02.467Z,34.03
2018-03-06T04:23:03.393Z,34
2018-03-06T04:24:02.481Z,34.03
2018-03-06T04:25:02.866Z,33.99
2018-03-06T04:26:02.455Z,33.95
2018-03-06T04:27:03.332Z,34.03
2018-03-06T04:28:02.461Z,33.9
2018-03-06T04:29:02.466Z,34.02
2018-03-06T04:30:02.464Z,34.01
2018-03-06T04:31:02.467Z,34.04
2018-03-06T04:32:02.469Z,34.06
2018-03-06T04:33:02.470Z,34
2018-03-06T04:34:03.359Z,34.03
2018-03-06T04:35:02.474Z,34.02
2018-03-06T04:36:02.463Z,34.04
2018-03-06T04:37:02.999Z,34.02
2018-03-06T04:38:02.531Z,34.04
2018-03-06T04:39:02.452Z,33.98
2018-03-06T04:40:03.475Z,34
2018-03-06T04:41:02.453Z,33.99
2018-03-06T04:42:02.516Z,33.97
2018-03-06T04:43:02.472Z,34.03
2018-03-06T04:44:03.160Z,34.06
2018-03-06T04:45:02.472Z,33.9
2018-03-06T04:46:02.486Z,33.95
2018-03-06T04:47:02.472Z,33.95
2018-03-06T04:48:03.268Z,33.98
2018-03-06T04:49:02.483Z,33.94
2018-03-06T04:50:02.464Z,34.03
2018-03-06T04:51:03.162Z,34
2018-03-06T04:52:02.514Z,33.99
2018-03-06T04:53:02.741Z,34
2018-03-06T04:54:02.480Z,34.06
2018-03-06T04:55:02.464Z,34.01
2018-03-06T04:56:02.450Z,33.97
2018-03-06T04:57:02.450Z,33.92
2018-03-06T04:58:03.369Z,33.99
2018-03-06T04:59:02.455Z,33.92
2018-03-06T05:00:02.470Z,33.96
2018-03-06T05:01:02.484Z,34.08
2018-03-06T05:02:03.295Z,34.06
2018-03-06T05:03:02.521Z,34.09
2018-03-06T05:04:02.466Z,33.99
2018-03-06T05:05:02.533Z,34.02
2018-03-06T05:06:02.951Z,34.09
2018-03-06T05:07:02.497Z,34.07
2018-03-06T05:08:02.479Z,34.1
2018-03-06T05:09:03.173Z,34.09
2018-03-06T05:10:02.438Z,33.95
2018-03-06T05:11:02.546Z,33.98
2018-03-06T05:12:02.459Z,34.01
2018-03-06T05:13:02.449Z,34.15
2018-03-06T05:14:02.481Z,34.1
2018-03-06T05:15:03.310Z,34.02
2018-03-06T05:16:02.462Z,33.92
2018-03-06T05:17:02.492Z,33.96
2018-03-06T05:18:02.457Z,34
2018-03-06T05:19:03.415Z,33.95
2018-03-06T05:20:02.442Z,33.93
2018-03-06T05:21:02.440Z,33.88
2018-03-06T05:22:02.430Z,33.89
2018-03-06T05:23:03.166Z,33.9
2018-03-06T05:24:02.469Z,33.9
2018-03-06T05:25:02.439Z,33.87
2018-03-06T05:26:02.452Z,33.87
2018-03-06T05:27:03.113Z,33.86
2018-03-06T05:28:02.438Z,33.88
2018-03-06T05:29:02.484Z,33.73
2018-03-06T05:30:02.488Z,33.98
2018-03-06T05:31:03.333Z,34
2018-03-06T05:32:02.463Z,33.76
2018-03-06T05:33:02.441Z,33.83
2018-03-06T05:34:03.268Z,33.82
2018-03-06T05:35:02.497Z,33.75
2018-03-06T05:36:02.419Z,33.68
2018-03-06T05:37:02.447Z,33.81
2018-03-06T05:38:03.289Z,33.71
2018-03-06T05:39:02.641Z,33.81
2018-03-06T05:40:02.759Z,33.75
2018-03-06T05:41:02.464Z,33.83
2018-03-06T05:42:03.316Z,33.87
2018-03-06T05:43:02.480Z,33.79
2018-03-06T05:44:02.478Z,33.76
2018-03-06T05:45:02.472Z,33.79
2018-03-06T05:46:03.394Z,33.93
2018-03-06T05:47:02.434Z,33.81
2018-03-06T05:48:02.447Z,33.89
2018-03-06T05:49:02.482Z,33.79
2018-03-06T05:50:03.472Z,33.83
2018-03-06T05:51:02.451Z,33.79
2018-03-06T05:52:02.432Z,33.79
2018-03-06T05:53:03.293Z,33.83
2018-03-06T05:54:02.475Z,33.84
2018-03-06T05:55:02.573Z,33.8
2018-03-06T05:56:02.457Z,33.93
2018-03-06T05:57:03.633Z,33.73
2018-03-06T05:58:02.421Z,33.89
2018-03-06T05:59:02.470Z,33.74
2018-03-06T06:00:02.468Z,33.78
2018-03-06T06:01:03.138Z,33.8
2018-03-06T06:02:02.474Z,33.86
2018-03-06T06:03:02.415Z,33.69
2018-03-06T06:04:03.355Z,33.74
2018-03-06T06:05:02.473Z,33.86
2018-03-06T06:06:02.428Z,33.81
2018-03-06T06:07:02.422Z,33.85
2018-03-06T06:08:02.492Z,33.71
2018-03-06T06:09:02.488Z,33.74
2018-03-06T06:10:03.212Z,33.84
2018-03-06T06:11:02.465Z,33.68
2018-03-06T06:12:02.445Z,33.84
2018-03-06T06:13:03.334Z,33.77
2018-03-06T06:14:02.472Z,33.84
2018-03-06T06:15:02.407Z,33.79
2018-03-06T06:16:02.403Z,33.68
2018-03-06T06:17:02.412Z,33.83
2018-03-06T06:18:02.441Z,33.75
2018-03-06T06:19:02.415Z,33.76
2018-03-06T06:20:02.434Z,33.73
2018-03-06T06:21:02.434Z,33.73
2018-03-06T06:22:02.418Z,33.85
2018-03-06T06:23:02.410Z,33.81
2018-03-06T06:24:02.398Z,33.91
2018-03-06T06:25:02.423Z,33.68
2018-03-06T06:26:02.419Z,33.67
2018-03-06T06:27:02.527Z,33.66
2018-03-06T06:28:02.750Z,33.71
2018-03-06T06:29:02.399Z,33.7
2018-03-06T06:30:02.418Z,33.7
2018-03-06T06:31:02.423Z,33.79
2018-03-06T06:32:02.417Z,33.78
2018-03-06T06:33:02.438Z,33.7
2018-03-06T06:34:02.406Z,33.69
2018-03-06T06:35:02.403Z,33.66
2018-03-06T06:36:02.407Z,33.66
2018-03-06T06:37:02.403Z,33.71
2018-03-06T06:38:02.674Z,33.82
2018-03-06T06:39:02.418Z,33.76
2018-03-06T06:40:02.502Z,33.63
2018-03-06T06:41:02.448Z,33.74
2018-03-06T06:42:02.434Z,33.74
2018-03-06T06:43:02.486Z,33.64
2018-03-06T06:44:02.446Z,33.66
2018-03-06T06:45:02.418Z,33.67
2018-03-06T06:46:02.394Z,33.72
2018-03-06T06:47:02.431Z,33.65
2018-03-06T06:48:02.414Z,33.67
2018-03-06T06:49:02.445Z,33.71
2018-03-06T06:50:02.463Z,33.6
2018-03-06T06:51:02.411Z,33.7
2018-03-06T06:52:02.445Z,33.6
2018-03-06T06:53:02.410Z,33.69
2018-03-06T06:54:02.400Z,33.57
2018-03-06T06:55:02.403Z,33.58
2018-03-06T06:56:02.399Z,33.6
2018-03-06T06:57:02.417Z,33.58
2018-03-06T06:58:02.429Z,33.63
2018-03-06T06:59:02.394Z,33.62
2018-03-06T07:00:02.376Z,33.64
2018-03-06T07:01:02.422Z,33.58
2018-03-06T07:02:02.391Z,33.57
2018-03-06T07:03:02.409Z,33.57
2018-03-06T07:04:02.405Z,33.51
2018-03-06T07:05:02.397Z,33.57
2018-03-06T07:06:02.466Z,33.65
2018-03-06T07:07:02.398Z,33.6
2018-03-06T07:08:02.387Z,33.6
2018-03-06T07:09:02.401Z,33.59
2018-03-06T07:10:02.389Z,33.56
2018-03-06T07:11:02.437Z,33.51
2018-03-06T07:12:02.387Z,33.57
2018-03-06T07:13:02.392Z,33.65
2018-03-06T07:14:02.384Z,33.46
2018-03-06T07:15:02.402Z,33.57
2018-03-06T07:16:02.383Z,33.51
2018-03-06T07:17:02.666Z,33.53
2018-03-06T07:18:02.467Z,33.53
2018-03-06T07:19:02.390Z,33.55
2018-03-06T07:20:02.409Z,33.47
2018-03-06T07:21:02.389Z,33.41
2018-03-06T07:22:02.694Z,33.45
2018-03-06T07:23:02.371Z,33.54
2018-03-06T07:24:02.404Z,33.5
2018-03-06T07:25:02.384Z,33.36
2018-03-06T07:26:02.408Z,33.44
2018-03-06T07:27:02.670Z,33.51
2018-03-06T07:28:02.383Z,33.48
2018-03-06T07:29:02.390Z,33.42
2018-03-06T07:30:02.383Z,33.5
2018-03-06T07:31:02.385Z,33.38
2018-03-06T07:32:02.423Z,33.46
2018-03-06T07:33:02.415Z,33.51
2018-03-06T07:34:02.399Z,33.46
2018-03-06T07:35:02.385Z,33.44
2018-03-06T07:36:02.368Z,33.32
2018-03-06T07:37:02.423Z,33.46
2018-03-06T07:38:02.425Z,33.43
2018-03-06T07:39:02.379Z,33.41
2018-03-06T07:40:02.391Z,33.45
2018-03-06T07:41:02.382Z,33.4
2018-03-06T07:42:02.452Z,33.44
2018-03-06T07:43:02.387Z,33.35
2018-03-06T07:44:02.380Z,33.46
2018-03-06T07:45:02.384Z,33.46
2018-03-06T07:46:02.367Z,33.45
2018-03-06T07:47:02.422Z,33.38
2018-03-06T07:48:02.375Z,33.41
2018-03-06T07:49:02.386Z,33.38
2018-03-06T07:50:02.367Z,33.35
2018-03-06T07:51:02.374Z,33.36
2018-03-06T07:52:02.395Z,33.36
2018-03-06T07:53:02.375Z,33.35
2018-03-06T07:54:02.388Z,33.43
2018-03-06T07:55:02.418Z,33.4
2018-03-06T07:56:02.470Z,33.35
2018-03-06T07:57:02.403Z,33.35
2018-03-06T07:58:02.374Z,33.34
2018-03-06T07:59:02.432Z,33.35
2018-03-06T08:00:02.395Z,33.33
2018-03-06T08:01:02.390Z,33.32
2018-03-06T08:02:02.370Z,33.34
2018-03-06T08:03:02.366Z,33.33
2018-03-06T08:04:02.402Z,33.37
2018-03-06T08:05:02.378Z,33.29
2018-03-06T08:06:02.380Z,33.36
2018-03-06T08:07:02.371Z,33.32
2018-03-06T08:08:02.422Z,33.32
2018-03-06T08:09:02.412Z,33.46
2018-03-06T08:10:02.384Z,33.15
2018-03-06T08:11:02.373Z,33.22
2018-03-06T08:12:02.455Z,33.31
2018-03-06T08:13:02.372Z,33.26
2018-03-06T08:14:02.400Z,33.47
2018-03-06T08:15:02.365Z,33.24
2018-03-06T08:16:02.371Z,33.3
2018-03-06T08:17:02.392Z,33.36
2018-03-06T08:18:02.363Z,33.3
2018-03-06T08:19:02.354Z,33.24
2018-03-06T08:20:02.354Z,33.26
2018-03-06T08:21:02.371Z,33.24
2018-03-06T08:22:02.367Z,33.32
2018-03-06T08:23:02.383Z,33.31
2018-03-06T08:24:02.367Z,33.26
2018-03-06T08:25:02.365Z,33.24
2018-03-06T08:26:02.374Z,33.2
2018-03-06T08:27:02.362Z,33.24
2018-03-06T08:28:02.361Z,33.15
2018-03-06T08:29:02.355Z,33.27
2018-03-06T08:30:02.365Z,33.24
2018-03-06T08:31:02.346Z,33.19
2018-03-06T08:32:02.366Z,33.2
2018-03-06T08:33:02.342Z,33.21
2018-03-06T08:34:02.349Z,33.25
2018-03-06T08:35:02.360Z,33.27
2018-03-06T08:36:02.390Z,33.26
2018-03-06T08:37:02.344Z,33.16
2018-03-06T08:38:02.370Z,33.21
2018-03-06T08:39:02.355Z,33.23
2018-03-06T08:40:02.356Z,33.21
2018-03-06T08:41:02.379Z,33.21
2018-03-06T08:42:02.349Z,33.18
2018-03-06T08:43:02.379Z,33.23
2018-03-06T08:44:02.348Z,33.1
2018-03-06T08:45:02.355Z,33.19
2018-03-06T08:46:02.371Z,33.17
2018-03-06T08:47:02.379Z,33.12
2018-03-06T08:48:02.359Z,33.12
2018-03-06T08:49:02.361Z,33.05
2018-03-06T08:50:02.344Z,33.07
2018-03-06T08:51:02.374Z,33.16
2018-03-06T08:52:02.353Z,33.15
2018-03-06T08:53:02.356Z,33.07
2018-03-06T08:54:02.353Z,33.13
2018-03-06T08:55:02.344Z,33.17
2018-03-06T08:56:02.353Z,33.12
2018-03-06T08:57:02.398Z,33.12
2018-03-06T08:58:02.354Z,33.07
2018-03-06T08:59:02.354Z,33.09
2018-03-06T09:00:02.352Z,33.13
2018-03-06T09:01:02.359Z,33.09
2018-03-06T09:02:02.378Z,33.16
2018-03-06T09:03:02.374Z,33.06
2018-03-06T09:04:02.353Z,33.12
2018-03-06T09:05:02.337Z,33.13
2018-03-06T09:06:02.344Z,33.21
2018-03-06T09:07:02.379Z,33.17
2018-03-06T09:08:02.346Z,33.09
2018-03-06T09:09:02.342Z,33.1
2018-03-06T09:10:02.352Z,33.13
2018-03-06T09:11:02.337Z,33.14
2018-03-06T09:12:02.619Z,33.04
2018-03-06T09:13:02.340Z,33.1
2018-03-06T09:14:02.345Z,33.32
2018-03-06T09:15:02.344Z,33.07
2018-03-06T09:16:02.351Z,33.25
2018-03-06T09:17:02.370Z,33.02
2018-03-06T09:18:02.372Z,33.18
2018-03-06T09:19:02.346Z,33.02
2018-03-06T09:20:02.351Z,33.12
2018-03-06T09:21:02.339Z,33.08
2018-03-06T09:22:02.352Z,33.12
2018-03-06T09:23:02.327Z,33.05
2018-03-06T09:24:02.347Z,33.12
2018-03-06T09:25:02.349Z,32.95
2018-03-06T09:26:02.341Z,32.95
2018-03-06T09:27:02.336Z,33.12
2018-03-06T09:28:02.341Z,33.1
2018-03-06T09:29:02.351Z,33.07
2018-03-06T09:30:02.345Z,33.17
2018-03-06T09:31:02.347Z,33.13
2018-03-06T09:32:02.338Z,33.08
2018-03-06T09:33:02.345Z,33.07
2018-03-06T09:34:02.370Z,32.98
2018-03-06T09:35:02.325Z,33.04
2018-03-06T09:36:02.344Z,33.05
2018-03-06T09:37:02.339Z,33.11
2018-03-06T09:38:02.346Z,33.07
2018-03-06T09:39:02.342Z,33.04
2018-03-06T09:40:02.341Z,33.03
2018-03-06T09:41:02.325Z,32.87
2018-03-06T09:42:02.332Z,33.07
2018-03-06T09:43:02.356Z,32.96
2018-03-06T09:44:02.342Z,33.05
2018-03-06T09:45:02.324Z,32.97
2018-03-06T09:46:02.349Z,33.06
2018-03-06T09:47:02.415Z,33.01
2018-03-06T09:48:02.331Z,32.98
2018-03-06T09:49:02.334Z,32.86
2018-03-06T09:50:02.366Z,33.02
2018-03-06T09:51:02.312Z,33
2018-03-06T09:52:02.334Z,33.04
2018-03-06T09:53:02.340Z,32.99
2018-03-06T09:54:02.320Z,32.99
2018-03-06T09:55:02.333Z,33.05
2018-03-06T09:56:02.434Z,33
2018-03-06T09:57:02.454Z,33.05
2018-03-06T09:58:02.341Z,33.03
2018-03-06T09:59:02.320Z,33.01
2018-03-06T10:00:02.338Z,32.87
2018-03-06T10:01:02.330Z,32.86
2018-03-06T10:02:02.328Z,33.03
2018-03-06T10:03:02.423Z,33.1
2018-03-06T10:04:02.325Z,32.98
2018-03-06T10:05:02.357Z,33
2018-03-06T10:06:02.340Z,32.92
2018-03-06T10:07:02.336Z,32.94
2018-03-06T10:08:02.325Z,33.04
2018-03-06T10:10:02.345Z,32.82
2018-03-06T10:11:02.331Z,33.03
2018-03-06T10:12:02.317Z,32.97
2018-03-06T10:13:02.322Z,33.02
2018-03-06T10:14:02.359Z,33.02
2018-03-06T10:15:02.338Z,32.94
2018-03-06T10:16:02.326Z,32.96
2018-03-06T10:17:02.318Z,32.93
2018-03-06T10:18:02.345Z,32.94
2018-03-06T10:19:02.346Z,32.93
2018-03-06T10:20:02.340Z,32.88
2018-03-06T10:21:02.334Z,32.88
2018-03-06T10:22:02.366Z,32.86
2018-03-06T10:23:02.326Z,32.97
2018-03-06T10:25:02.310Z,33
2018-03-06T10:26:02.354Z,33.04
2018-03-06T10:27:02.309Z,32.93
2018-03-06T10:28:02.357Z,33.02
2018-03-06T10:29:02.325Z,32.98
2018-03-06T10:31:02.314Z,32.89
2018-03-06T10:32:02.369Z,33.08
2018-03-06T10:33:02.330Z,33.17
2018-03-06T10:34:02.429Z,32.95
2018-03-06T10:35:02.329Z,32.95
2018-03-06T10:36:02.318Z,32.97
2018-03-06T10:37:02.309Z,32.93
2018-03-06T10:38:02.307Z,33
2018-03-06T10:39:02.311Z,33
2018-03-06T10:40:02.371Z,32.96
2018-03-06T10:41:02.327Z,32.94
2018-03-06T10:42:02.317Z,32.85
2018-03-06T10:43:02.311Z,32.88
2018-03-06T10:44:02.310Z,33.08
2018-03-06T10:45:02.324Z,33.02
2018-03-06T10:47:02.370Z,32.82
2018-03-06T10:48:02.313Z,32.87
2018-03-06T10:49:02.344Z,32.87
2018-03-06T10:50:02.323Z,32.87
2018-03-06T10:51:02.312Z,32.84
2018-03-06T10:52:02.357Z,32.85
2018-03-06T10:53:02.320Z,32.87
2018-03-06T10:54:02.333Z,32.67
2018-03-06T10:55:02.321Z,32.89
2018-03-06T10:56:02.318Z,32.83
2018-03-06T10:57:02.299Z,32.73
2018-03-06T10:58:02.320Z,32.94
2018-03-06T10:59:02.334Z,32.77
2018-03-06T11:00:02.329Z,32.84
2018-03-06T11:01:02.319Z,32.87
2018-03-06T11:02:02.324Z,32.88
2018-03-06T11:03:02.311Z,32.88
2018-03-06T11:04:02.332Z,32.91
2018-03-06T11:05:02.331Z,32.87
2018-03-06T11:06:02.294Z,32.91
2018-03-06T11:07:02.317Z,32.94
2018-03-06T11:08:02.289Z,32.87
2018-03-06T11:09:02.315Z,32.91
2018-03-06T11:10:02.338Z,32.91
2018-03-06T11:11:02.306Z,32.84
2018-03-06T11:12:02.304Z,32.84
2018-03-06T11:13:02.322Z,32.86
2018-03-06T11:14:02.292Z,32.84
2018-03-06T11:15:02.345Z,32.86
2018-03-06T11:16:02.327Z,32.93
2018-03-06T11:17:02.301Z,32.91
2018-03-06T11:18:02.304Z,32.83
2018-03-06T11:19:02.332Z,32.89
2018-03-06T11:20:02.313Z,32.84
2018-03-06T11:21:02.348Z,32.83
2018-03-06T11:22:02.306Z,32.93
2018-03-06T11:23:02.295Z,32.82
2018-03-06T11:24:02.307Z,32.97
2018-03-06T11:25:02.337Z,32.91
2018-03-06T11:26:02.334Z,32.84
2018-03-06T11:27:02.287Z,32.82
2018-03-06T11:28:02.592Z,32.83
2018-03-06T11:29:02.303Z,32.86
2018-03-06T11:30:02.327Z,32.89
2018-03-06T11:31:02.328Z,32.85
2018-03-06T11:32:02.303Z,32.89
2018-03-06T11:33:02.346Z,32.84
2018-03-06T11:34:02.301Z,32.8
2018-03-06T11:35:02.290Z,32.87
2018-03-06T11:36:02.517Z,32.8
2018-03-06T11:37:02.319Z,32.82
2018-03-06T11:38:02.299Z,32.88
2018-03-06T11:39:02.296Z,32.82
2018-03-06T11:40:02.295Z,32.91
2018-03-06T11:41:02.307Z,32.86
2018-03-06T11:42:02.305Z,32.85
2018-03-06T11:43:02.346Z,32.85
2018-03-06T11:44:02.349Z,32.87
2018-03-06T11:45:02.295Z,32.82
2018-03-06T11:46:02.297Z,32.83
2018-03-06T11:47:02.280Z,32.85
2018-03-06T11:48:02.583Z,32.91
2018-03-06T11:49:02.304Z,32.82
2018-03-06T11:50:02.299Z,32.89
2018-03-06T11:51:02.302Z,32.89
2018-03-06T11:52:02.283Z,32.83
2018-03-06T11:53:02.341Z,32.86
2018-03-06T11:54:02.301Z,32.8
2018-03-06T11:56:02.296Z,32.85
2018-03-06T11:57:02.344Z,32.88
2018-03-06T11:58:02.425Z,32.83
2018-03-06T11:59:02.313Z,32.86
2018-03-06T12:00:02.302Z,32.82
2018-03-06T12:01:02.277Z,32.83
2018-03-06T12:02:02.380Z,32.87
2018-03-06T12:03:02.316Z,32.83
2018-03-06T12:04:02.288Z,32.87
2018-03-06T12:05:02.272Z,32.86
2018-03-06T12:06:02.288Z,32.86
2018-03-06T12:07:02.307Z,32.86
2018-03-06T12:08:02.310Z,32.8
2018-03-06T12:09:02.302Z,32.86
2018-03-06T12:10:02.380Z,32.85
2018-03-06T12:11:02.292Z,32.86
2018-03-06T12:12:02.303Z,32.85
2018-03-06T12:13:02.319Z,32.84
2018-03-06T12:14:02.304Z,32.86
2018-03-06T12:15:02.286Z,32.77
2018-03-06T12:16:02.275Z,32.85
2018-03-06T12:17:02.274Z,32.87
2018-03-06T12:18:02.555Z,32.84
2018-03-06T12:19:02.280Z,32.88
2018-03-06T12:20:02.290Z,32.82
2018-03-06T12:21:02.303Z,32.88
2018-03-06T12:22:02.267Z,32.87
2018-03-06T12:23:02.313Z,32.86
2018-03-06T12:24:02.299Z,32.8
2018-03-06T12:25:02.289Z,32.89
2018-03-06T12:26:02.299Z,32.8
2018-03-06T12:27:02.288Z,32.88
2018-03-06T12:28:02.278Z,32.87
2018-03-06T12:29:02.281Z,32.82
2018-03-06T12:30:02.329Z,32.83
2018-03-06T12:31:02.310Z,32.85
2018-03-06T12:32:02.300Z,32.79
2018-03-06T12:33:02.282Z,32.81
2018-03-06T12:34:02.307Z,32.75
2018-03-06T12:35:02.321Z,32.82
2018-03-06T12:36:02.277Z,32.78
2018-03-06T12:37:02.278Z,32.88
2018-03-06T12:38:02.267Z,32.85
2018-03-06T12:39:02.274Z,32.84
2018-03-06T12:40:02.286Z,32.89
2018-03-06T12:41:02.279Z,32.83
2018-03-06T12:42:02.284Z,32.82
2018-03-06T12:43:02.259Z,32.84
2018-03-06T12:44:02.315Z,32.85
2018-03-06T12:45:02.392Z,32.84
2018-03-06T12:46:02.288Z,32.78
2018-03-06T12:47:02.288Z,32.81
2018-03-06T12:48:02.301Z,32.83
2018-03-06T12:49:02.302Z,32.88
2018-03-06T12:50:02.277Z,32.79
2018-03-06T12:51:02.257Z,32.8
2018-03-06T12:52:02.285Z,32.84
2018-03-06T12:53:02.278Z,32.8
2018-03-06T12:54:02.302Z,32.83
2018-03-06T12:55:02.272Z,32.82
2018-03-06T12:56:02.264Z,32.84
2018-03-06T12:57:02.269Z,32.78
2018-03-06T12:58:02.312Z,32.77
2018-03-06T12:59:02.285Z,32.81
2018-03-06T13:00:02.279Z,32.85
2018-03-06T13:01:02.282Z,32.75
2018-03-06T13:02:02.285Z,32.84